createdAt,value
2023-04-20T00:02:21.718Z,91.79
2023-04-20T00:04:48.524Z,91.75
2023-04-20T00:07:16.599Z,91.45
2023-04-20T00:09:43.241Z,91.11
2023-04-20T00:12:09.694Z,91.34
2023-04-20T00:14:36.202Z,91.74
2023-04-20T00:17:02.870Z,91.66
2023-04-20T00:19:33.068Z,91.59
2023-04-20T00:21:59.995Z,92.64
2023-04-20T00:24:26.801Z,92.20
2023-04-20T00:26:53.268Z,92.67
2023-04-20T00:29:19.805Z,92.49
2023-04-20T00:31:46.299Z,92.94
2023-04-20T00:34:12.742Z,92.81
2023-04-20T00:36:39.204Z,92.32
2023-04-20T00:39:05.861Z,93.28
2023-04-20T00:41:32.363Z,93.43
2023-04-20T00:43:58.863Z,93.51
2023-04-20T00:46:25.688Z,93.57
2023-04-20T00:48:52.206Z,93.47
2023-04-20T00:51:18.692Z,93.05
2023-04-20T00:53:45.346Z,92.93
2023-04-20T00:56:13.056Z,93.06
2023-04-20T00:58:39.515Z,93.46
2023-04-20T01:01:06.078Z,92.86
2023-04-20T01:03:33.166Z,93.23
2023-04-20T01:05:59.831Z,93.20
2023-04-20T01:08:27.486Z,93.59
2023-04-20T01:10:57.106Z,93.76
2023-04-20T01:13:23.693Z,93.39
2023-04-20T01:15:50.396Z,93.42
2023-04-20T01:18:19.014Z,93.65
2023-04-20T01:20:47.076Z,93.64
2023-04-20T01:23:13.578Z,93.36
2023-04-20T01:25:40.108Z,93.64
2023-04-20T01:28:06.727Z,93.37
2023-04-20T01:30:34.250Z,93.33
2023-04-20T01:33:00.890Z,93.01
2023-04-20T01:35:28.304Z,93.18
2023-04-20T01:37:54.861Z,93.35
2023-04-20T01:40:21.331Z,93.08
2023-04-20T01:42:47.835Z,92.97
2023-04-20T01:45:14.513Z,92.70
2023-04-20T01:47:41.050Z,92.85
2023-04-20T01:50:07.796Z,92.55
2023-04-20T01:52:34.351Z,92.26
2023-04-20T01:55:00.804Z,91.96
2023-04-20T01:57:27.348Z,92.29
2023-04-20T01:59:54.212Z,92.42
2023-04-20T02:02:20.717Z,92.73
2023-04-20T02:04:47.268Z,92.19
2023-04-20T02:07:13.733Z,92.17
2023-04-20T02:09:40.206Z,91.74
2023-04-20T02:12:06.712Z,92.05
2023-04-20T02:14:33.240Z,92.12
2023-04-20T02:17:00.834Z,91.96
2023-04-20T02:19:27.436Z,91.15
2023-04-20T02:21:54.032Z,91.50
2023-04-20T02:24:20.471Z,91.73
2023-04-20T02:26:47.105Z,91.53
2023-04-20T02:29:13.629Z,92.02
2023-04-20T02:31:40.203Z,91.86
2023-04-20T02:34:09.289Z,92.17
2023-04-20T02:36:36.252Z,91.73
2023-04-20T02:39:03.458Z,92.24
2023-04-20T02:41:30.109Z,91.63
2023-04-20T02:43:56.838Z,91.68
2023-04-20T02:46:23.377Z,91.52
2023-04-20T02:48:50.463Z,92.04
2023-04-20T02:51:16.995Z,91.72
2023-04-20T02:53:43.468Z,91.28
2023-04-20T02:56:10.046Z,91.22
2023-04-20T02:58:36.589Z,90.49
2023-04-20T03:01:04.046Z,90.87
2023-04-20T03:03:30.698Z,90.56
2023-04-20T03:05:57.477Z,89.81
2023-04-20T03:08:23.952Z,90.00
2023-04-20T03:10:50.530Z,90.49
2023-04-20T03:13:17.089Z,90.25
2023-04-20T03:15:43.761Z,89.99
2023-04-20T03:18:10.231Z,90.09
2023-04-20T03:20:36.980Z,90.13
2023-04-20T03:23:03.452Z,89.55
2023-04-20T03:25:30.004Z,89.89
2023-04-20T03:27:56.546Z,89.95
2023-04-20T03:30:23.083Z,90.24
2023-04-20T03:32:49.617Z,90.26
2023-04-20T03:35:17.680Z,90.18
2023-04-20T03:37:44.289Z,90.59
2023-04-20T03:40:11.264Z,90.37
2023-04-20T03:42:37.832Z,90.32
2023-04-20T03:45:05.675Z,90.57
2023-04-20T03:47:32.242Z,91.07
2023-04-20T03:49:58.737Z,90.63
2023-04-20T03:52:25.346Z,90.71
2023-04-20T03:54:51.875Z,90.16
2023-04-20T03:57:18.438Z,90.02
2023-04-20T03:59:44.926Z,89.54
2023-04-20T04:02:13.292Z,89.00
2023-04-20T04:04:40.810Z,89.72
2023-04-20T04:07:07.493Z,88.87
2023-04-20T04:09:33.980Z,88.75
2023-04-20T04:12:01.356Z,88.56
2023-04-20T04:14:28.484Z,88.54
2023-04-20T04:16:55.080Z,88.69
2023-04-20T04:19:21.659Z,88.58
2023-04-20T04:21:48.115Z,88.64
2023-04-20T04:24:15.213Z,88.25
2023-04-20T04:26:42.100Z,88.12
2023-04-20T04:29:10.445Z,87.36
2023-04-20T04:31:36.974Z,86.94
2023-04-20T04:34:03.781Z,87.31
2023-04-20T04:36:30.278Z,86.81
2023-04-20T04:38:56.749Z,86.57
2023-04-20T04:41:23.535Z,87.15
2023-04-20T04:43:49.988Z,86.70
2023-04-20T04:46:16.601Z,86.41
2023-04-20T04:48:43.506Z,86.87
2023-04-20T04:51:10.114Z,87.04
2023-04-20T04:53:36.933Z,87.29
2023-04-20T04:56:04.043Z,87.28
2023-04-20T04:58:30.939Z,86.85
2023-04-20T05:00:57.411Z,86.51
2023-04-20T05:03:24.109Z,86.66
2023-04-20T05:05:50.726Z,86.41
2023-04-20T05:08:17.195Z,86.42
2023-04-20T05:10:43.729Z,86.04
2023-04-20T05:13:10.197Z,85.67
2023-04-20T05:15:36.729Z,85.40
2023-04-20T05:18:03.249Z,85.43
2023-04-20T05:20:29.848Z,85.48
2023-04-20T05:22:56.388Z,85.79
2023-04-20T05:25:22.939Z,85.08
2023-04-20T05:27:49.505Z,85.35
2023-04-20T05:30:21.572Z,85.06
2023-04-20T05:32:51.400Z,85.15
2023-04-20T05:35:18.689Z,85.66
2023-04-20T05:37:45.315Z,85.11
2023-04-20T05:40:11.942Z,84.46
2023-04-20T05:42:38.478Z,84.13
2023-04-20T05:45:05.517Z,84.30
2023-04-20T05:47:32.113Z,84.48
2023-04-20T05:49:59.408Z,84.20
2023-04-20T05:52:25.848Z,84.16
2023-04-20T05:54:52.876Z,84.25
2023-04-20T05:57:19.333Z,83.37
2023-04-20T05:59:45.781Z,83.60
2023-04-20T06:02:12.441Z,83.67
2023-04-20T06:04:39.184Z,82.11
2023-04-20T06:07:05.838Z,81.78
2023-04-20T06:09:32.381Z,81.22
2023-04-20T06:12:00.244Z,81.37
2023-04-20T06:14:26.943Z,80.88
2023-04-20T06:16:53.512Z,81.68
2023-04-20T06:19:19.992Z,81.66
2023-04-20T06:21:46.508Z,81.61
2023-04-20T06:24:13.019Z,81.58
2023-04-20T06:26:39.479Z,80.96
2023-04-20T06:29:06.278Z,81.03
2023-04-20T06:31:32.850Z,80.22
2023-04-20T06:33:59.435Z,80.17
2023-04-20T06:36:27.610Z,80.83
2023-04-20T06:38:55.044Z,79.54
2023-04-20T06:41:21.491Z,79.64
2023-04-20T06:43:48.009Z,78.52
2023-04-20T06:46:14.577Z,79.23
2023-04-20T06:48:41.190Z,78.82
2023-04-20T06:51:07.660Z,78.60
2023-04-20T06:53:34.336Z,78.44
2023-04-20T06:56:00.969Z,77.78
2023-04-20T06:58:27.438Z,78.63
2023-04-20T07:00:54.215Z,79.64
2023-04-20T07:03:20.935Z,79.13
2023-04-20T07:05:47.641Z,79.97
2023-04-20T07:08:15.909Z,79.11
2023-04-20T07:10:42.668Z,79.15
2023-04-20T07:13:09.184Z,78.75
2023-04-20T07:15:35.697Z,78.26
2023-04-20T07:18:02.356Z,78.32
2023-04-20T07:20:28.879Z,77.69
2023-04-20T07:22:55.369Z,76.76
2023-04-20T07:25:21.873Z,76.15
2023-04-20T07:27:48.387Z,75.81
2023-04-20T07:30:15.085Z,77.50
2023-04-20T07:32:41.625Z,76.21
2023-04-20T07:35:08.566Z,78.94
2023-04-20T07:37:35.109Z,77.25
2023-04-20T07:40:01.970Z,76.30
2023-04-20T07:42:29.718Z,78.61
2023-04-20T07:44:56.374Z,74.46
2023-04-20T07:47:22.986Z,73.67
2023-04-20T07:49:49.779Z,72.15
2023-04-20T07:52:17.507Z,72.90
2023-04-20T07:54:46.975Z,73.95
2023-04-20T07:57:13.540Z,72.52
2023-04-20T07:59:40.828Z,72.55
2023-04-20T08:02:07.520Z,72.92
2023-04-20T08:04:36.500Z,71.67
2023-04-20T08:07:03.416Z,71.10
2023-04-20T08:09:29.886Z,70.86
2023-04-20T08:11:56.665Z,72.64
2023-04-20T08:14:23.182Z,72.67
2023-04-20T08:16:49.665Z,71.90
2023-04-20T08:19:16.151Z,72.91
2023-04-20T08:21:42.987Z,74.06
2023-04-20T08:24:09.601Z,72.86
2023-04-20T08:26:36.093Z,71.04
2023-04-20T08:29:02.790Z,71.59
2023-04-20T08:31:29.317Z,71.48
2023-04-20T08:33:55.834Z,71.89
2023-04-20T08:36:22.678Z,73.19
2023-04-20T08:38:54.932Z,73.11
2023-04-20T08:41:21.378Z,73.02
2023-04-20T08:43:48.553Z,73.28
2023-04-20T08:46:15.024Z,73.52
2023-04-20T08:48:41.497Z,73.42
2023-04-20T08:51:08.142Z,74.07
2023-04-20T08:53:34.697Z,73.39
2023-04-20T08:56:01.270Z,73.81
2023-04-20T08:58:34.593Z,73.43
2023-04-20T09:01:01.350Z,73.82
2023-04-20T09:03:37.810Z,73.87
2023-04-20T09:06:14.941Z,73.83
2023-04-20T09:08:42.192Z,73.59
2023-04-20T09:11:23.683Z,73.24
2023-04-20T09:14:16.628Z,72.61
2023-04-20T09:16:51.129Z,73.16
2023-04-20T09:19:24.724Z,73.97
2023-04-20T09:21:52.824Z,75.10
2023-04-20T09:24:22.934Z,73.92
2023-04-20T09:26:49.543Z,74.59
2023-04-20T09:29:20.605Z,74.15
2023-04-20T09:31:48.221Z,74.46
2023-04-20T09:34:15.245Z,73.90
2023-04-20T09:36:43.027Z,72.93
2023-04-20T09:39:10.910Z,73.76
2023-04-20T09:41:38.450Z,73.86
2023-04-20T09:44:05.267Z,73.51
2023-04-20T09:46:39.021Z,72.76
2023-04-20T09:49:07.491Z,73.37
2023-04-20T09:51:35.586Z,72.70
2023-04-20T09:54:03.738Z,72.79
2023-04-20T09:56:30.621Z,72.56
2023-04-20T09:58:57.406Z,72.78
2023-04-20T10:01:24.268Z,72.55
2023-04-20T10:03:53.878Z,72.92
2023-04-20T10:06:30.838Z,73.20
2023-04-20T10:08:57.370Z,72.82
2023-04-20T10:11:31.504Z,71.86
2023-04-20T10:14:26.258Z,71.84
2023-04-20T10:17:07.125Z,72.95
2023-04-20T10:19:43.184Z,71.85
2023-04-20T10:22:10.809Z,70.79
2023-04-20T10:24:39.897Z,71.88
2023-04-20T10:27:19.375Z,70.30
2023-04-20T10:29:45.975Z,70.27
2023-04-20T10:32:25.601Z,72.04
2023-04-20T10:35:08.674Z,74.11
2023-04-20T10:37:35.186Z,71.04
2023-04-20T10:40:02.034Z,70.91
2023-04-20T10:42:29.675Z,70.49
2023-04-20T10:44:56.445Z,70.55
2023-04-20T10:47:30.073Z,69.92
2023-04-20T10:50:15.714Z,69.43
2023-04-20T10:52:43.124Z,70.71
2023-04-20T10:55:23.278Z,68.47
2023-04-20T10:57:50.063Z,66.99
2023-04-20T11:00:24.935Z,67.42
2023-04-20T11:02:52.911Z,68.16
2023-04-20T11:05:20.297Z,69.38
2023-04-20T11:07:48.955Z,67.97
2023-04-20T11:10:15.693Z,67.72
2023-04-20T11:12:42.209Z,68.51
2023-04-20T11:15:10.176Z,67.20
2023-04-20T11:17:37.144Z,67.48
2023-04-20T11:20:11.046Z,69.53
2023-04-20T11:22:40.672Z,70.94
2023-04-20T11:25:08.700Z,66.83
2023-04-20T11:27:35.852Z,69.16
2023-04-20T11:30:05.635Z,69.82
2023-04-20T11:32:33.143Z,66.51
2023-04-20T11:35:06.681Z,66.88
2023-04-20T11:37:34.629Z,66.08
2023-04-20T11:40:09.891Z,61.45
2023-04-20T11:42:37.046Z,65.08
2023-04-20T11:45:03.941Z,67.07
2023-04-20T11:47:30.889Z,63.54
2023-04-20T11:49:57.402Z,66.33
2023-04-20T11:52:23.867Z,64.67
2023-04-20T11:54:50.403Z,62.02
2023-04-20T11:57:16.865Z,60.58
2023-04-20T11:59:43.380Z,62.59
2023-04-20T12:02:10.003Z,64.76
2023-04-20T12:04:36.729Z,65.53
2023-04-20T12:07:03.482Z,66.63
2023-04-20T12:09:30.640Z,63.57
2023-04-20T12:11:57.673Z,64.43
2023-04-20T12:14:24.240Z,66.67
2023-04-20T12:16:50.953Z,63.72
2023-04-20T12:19:17.760Z,62.41
2023-04-20T12:21:44.504Z,61.89
2023-04-20T12:24:11.001Z,65.64
2023-04-20T12:26:38.633Z,64.21
2023-04-20T12:29:05.684Z,62.02
2023-04-20T12:31:32.328Z,64.60
2023-04-20T12:33:58.845Z,61.15
2023-04-20T12:36:25.787Z,64.19
2023-04-20T12:38:52.563Z,60.68
2023-04-20T12:41:19.189Z,60.47
2023-04-20T12:43:45.650Z,61.50
2023-04-20T12:46:12.447Z,60.21
2023-04-20T12:48:38.938Z,62.89
2023-04-20T12:51:05.610Z,58.33
2023-04-20T12:53:32.128Z,61.00
2023-04-20T12:56:01.333Z,57.25
2023-04-20T12:58:28.355Z,61.99
2023-04-20T13:00:54.883Z,60.09
2023-04-20T13:03:21.512Z,58.74
2023-04-20T13:05:48.117Z,55.36
2023-04-20T13:08:14.609Z,59.53
2023-04-20T13:10:43.939Z,57.00
2023-04-20T13:13:10.850Z,58.75
2023-04-20T13:15:39.026Z,58.29
2023-04-20T13:18:06.233Z,60.06
2023-04-20T13:20:32.855Z,52.24
2023-04-20T13:22:59.941Z,54.10
2023-04-20T13:25:26.798Z,54.16
2023-04-20T13:27:53.986Z,53.35
2023-04-20T13:30:23.489Z,53.21
2023-04-20T13:32:50.738Z,59.39
2023-04-20T13:35:17.328Z,58.49
2023-04-20T13:37:44.280Z,59.99
2023-04-20T13:40:11.114Z,59.57
2023-04-20T13:42:37.618Z,60.01
2023-04-20T13:45:04.920Z,58.99
2023-04-20T13:47:31.639Z,61.67
2023-04-20T13:49:58.167Z,57.43
2023-04-20T13:52:24.758Z,53.79
2023-04-20T13:54:51.285Z,53.61
2023-04-20T13:57:17.777Z,55.45
2023-04-20T13:59:44.337Z,59.26
2023-04-20T14:02:10.971Z,57.51
2023-04-20T14:04:37.620Z,60.20
2023-04-20T14:07:04.138Z,59.42
2023-04-20T14:09:31.122Z,59.55
2023-04-20T14:11:57.857Z,60.14
2023-04-20T14:14:25.024Z,60.02
2023-04-20T14:16:51.713Z,59.57
2023-04-20T14:19:18.216Z,59.68
2023-04-20T14:21:46.520Z,60.14
2023-04-20T14:24:13.512Z,59.46
2023-04-20T14:26:40.315Z,59.05
2023-04-20T14:29:06.909Z,59.43
2023-04-20T14:31:34.559Z,61.11
2023-04-20T14:34:01.316Z,63.49
2023-04-20T14:36:28.116Z,61.62
2023-04-20T14:38:55.542Z,61.94
2023-04-20T14:41:22.143Z,62.12
2023-04-20T14:43:48.730Z,61.04
2023-04-20T14:46:15.578Z,63.39
2023-04-20T14:48:42.543Z,63.73
2023-04-20T14:51:09.056Z,63.73
2023-04-20T14:53:35.616Z,64.05
2023-04-20T14:56:02.069Z,64.09
2023-04-20T14:58:28.658Z,64.69
2023-04-20T15:00:55.155Z,64.94
2023-04-20T15:03:21.848Z,65.03
2023-04-20T15:05:48.656Z,65.76
2023-04-20T15:08:15.324Z,66.07
2023-04-20T15:10:41.782Z,66.29
2023-04-20T15:13:08.353Z,66.30
2023-04-20T15:15:47.730Z,66.81
2023-04-20T15:18:16.877Z,67.35
2023-04-20T15:20:43.463Z,67.14
2023-04-20T15:23:10.012Z,67.44
2023-04-20T15:25:36.502Z,67.48
2023-04-20T15:28:03.147Z,67.60
2023-04-20T15:30:30.226Z,67.86
2023-04-20T15:33:05.081Z,67.59
2023-04-20T15:35:32.328Z,67.19
2023-04-20T15:37:59.057Z,68.02
2023-04-20T15:40:27.146Z,67.48
2023-04-20T15:42:55.575Z,67.78
2023-04-20T15:45:22.270Z,67.75
2023-04-20T15:47:48.854Z,68.12
2023-04-20T15:50:16.307Z,68.66
2023-04-20T15:52:43.165Z,69.33
2023-04-20T15:55:12.782Z,69.79
2023-04-20T15:57:39.368Z,69.43
2023-04-20T16:00:08.493Z,69.58
2023-04-20T16:02:39.948Z,69.13
2023-04-20T16:05:07.326Z,69.83
2023-04-20T16:07:33.908Z,69.22
2023-04-20T16:10:00.512Z,69.30
2023-04-20T16:12:27.035Z,69.25
2023-04-20T16:14:53.886Z,69.81
2023-04-20T16:17:20.682Z,69.08
2023-04-20T16:19:47.204Z,69.35
2023-04-20T16:22:14.221Z,69.41
2023-04-20T16:24:40.883Z,69.75
2023-04-20T16:27:07.434Z,69.93
2023-04-20T16:29:34.007Z,69.34
2023-04-20T16:32:00.487Z,70.02
2023-04-20T16:34:26.937Z,69.82
2023-04-20T16:36:54.193Z,69.63
2023-04-20T16:39:20.694Z,70.63
2023-04-20T16:41:47.193Z,69.73
2023-04-20T16:44:14.412Z,70.01
2023-04-20T16:46:41.928Z,69.75
2023-04-20T16:49:09.148Z,69.88
2023-04-20T16:51:35.765Z,70.16
2023-04-20T16:54:02.300Z,70.40
2023-04-20T16:56:28.988Z,70.30
2023-04-20T16:58:55.587Z,70.22
2023-04-20T17:01:22.290Z,70.20
2023-04-20T17:03:48.937Z,70.70
2023-04-20T17:06:15.600Z,70.27
2023-04-20T17:08:42.046Z,70.37
2023-04-20T17:11:08.577Z,70.70
2023-04-20T17:13:35.166Z,70.71
2023-04-20T17:16:01.684Z,70.82
2023-04-20T17:18:28.203Z,70.84
2023-04-20T17:20:57.151Z,71.06
2023-04-20T17:23:23.715Z,70.85
2023-04-20T17:25:51.234Z,71.71
2023-04-20T17:28:17.850Z,71.69
2023-04-20T17:30:44.395Z,71.58
2023-04-20T17:33:13.891Z,71.96
2023-04-20T17:35:40.579Z,72.25
2023-04-20T17:38:07.057Z,72.70
2023-04-20T17:40:33.804Z,73.03
2023-04-20T17:43:00.944Z,72.92
2023-04-20T17:45:27.404Z,73.31
2023-04-20T17:47:53.916Z,73.13
2023-04-20T17:50:20.746Z,73.14
2023-04-20T17:52:47.228Z,73.80
2023-04-20T17:55:13.792Z,73.90
2023-04-20T17:57:40.389Z,74.30
2023-04-20T18:00:07.878Z,74.11
2023-04-20T18:02:34.525Z,74.27
2023-04-20T18:05:01.235Z,75.25
2023-04-20T18:07:27.849Z,74.72
2023-04-20T18:09:54.432Z,74.95
2023-04-20T18:12:21.030Z,75.46
2023-04-20T18:14:47.503Z,75.75
2023-04-20T18:17:13.981Z,76.15
2023-04-20T18:19:43.375Z,76.46
2023-04-20T18:22:10.067Z,76.37
2023-04-20T18:24:36.680Z,77.20
2023-04-20T18:27:04.032Z,76.92
2023-04-20T18:29:31.394Z,77.24
2023-04-20T18:32:01.029Z,76.72
2023-04-20T18:34:30.962Z,77.06
2023-04-20T18:36:57.994Z,77.49
2023-04-20T18:39:24.907Z,76.97
2023-04-20T18:41:51.439Z,77.25
2023-04-20T18:44:18.120Z,77.29
2023-04-20T18:46:45.009Z,77.83
2023-04-20T18:49:11.799Z,78.08
2023-04-20T18:51:38.332Z,78.31
2023-04-20T18:54:05.016Z,78.77
2023-04-20T18:56:32.217Z,78.80
2023-04-20T18:58:59.479Z,79.11
2023-04-20T19:01:26.181Z,79.34
2023-04-20T19:03:52.892Z,79.42
2023-04-20T19:06:19.624Z,78.80
2023-04-20T19:08:46.079Z,79.49
2023-04-20T19:11:12.580Z,79.92
2023-04-20T19:13:44.335Z,80.33
2023-04-20T19:16:11.657Z,81.27
2023-04-20T19:18:38.575Z,81.92
2023-04-20T19:21:05.375Z,83.32
2023-04-20T19:23:31.906Z,83.54
2023-04-20T19:25:58.475Z,83.22
2023-04-20T19:28:24.952Z,82.96
2023-04-20T19:30:51.476Z,83.07
2023-04-20T19:33:18.011Z,83.57
2023-04-20T19:35:50.347Z,82.74
2023-04-20T19:38:18.366Z,83.60
2023-04-20T19:40:44.927Z,82.89
2023-04-20T19:43:11.547Z,83.12
2023-04-20T19:45:39.001Z,82.79
2023-04-20T19:48:05.904Z,83.91
2023-04-20T19:50:32.528Z,84.47
2023-04-20T19:52:59.326Z,84.54
2023-04-20T19:55:25.855Z,85.94
2023-04-20T19:57:52.362Z,85.89
2023-04-20T20:00:19.003Z,86.94
2023-04-20T20:02:45.734Z,87.62
2023-04-20T20:05:12.435Z,86.50
2023-04-20T20:07:39.003Z,86.51
2023-04-20T20:10:06.355Z,86.00
2023-04-20T20:12:32.861Z,87.12
2023-04-20T20:14:59.513Z,87.08
2023-04-20T20:17:26.073Z,89.02
2023-04-20T20:19:53.791Z,90.07
2023-04-20T20:22:21.664Z,89.92
2023-04-20T20:24:51.126Z,89.93
2023-04-20T20:27:17.954Z,89.82
2023-04-20T20:29:44.455Z,89.12
2023-04-20T20:32:10.904Z,88.48
2023-04-20T20:34:37.518Z,89.80
2023-04-20T20:37:04.372Z,90.07
2023-04-20T20:39:31.428Z,90.46
2023-04-20T20:41:58.241Z,90.58
2023-04-20T20:44:25.289Z,91.22
2023-04-20T20:46:51.854Z,91.21
2023-04-20T20:49:18.704Z,91.35
2023-04-20T20:51:45.534Z,90.46
2023-04-20T20:54:12.009Z,90.23
2023-04-20T20:56:38.494Z,89.02
2023-04-20T20:59:05.308Z,87.74
2023-04-20T21:01:31.913Z,87.39
2023-04-20T21:03:58.689Z,89.69
2023-04-20T21:06:25.500Z,88.95
2023-04-20T21:08:52.033Z,89.21
2023-04-20T21:11:18.529Z,90.15
2023-04-20T21:13:45.038Z,89.16
2023-04-20T21:16:11.532Z,89.44
2023-04-20T21:18:38.042Z,91.47
2023-04-20T21:21:04.573Z,91.13
2023-04-20T21:23:30.997Z,91.92
2023-04-20T21:25:57.510Z,92.91
2023-04-20T21:28:24.029Z,92.70
2023-04-20T21:30:50.757Z,92.66
2023-04-20T21:33:17.253Z,92.27
2023-04-20T21:35:43.744Z,91.87
2023-04-20T21:38:10.189Z,91.47
2023-04-20T21:40:36.641Z,91.71
2023-04-20T21:43:03.115Z,91.34
2023-04-20T21:45:29.554Z,91.63
2023-04-20T21:47:56.043Z,91.60
2023-04-20T21:50:26.944Z,91.68
2023-04-20T21:52:54.531Z,92.94
2023-04-20T21:55:21.224Z,91.95
2023-04-20T21:57:47.766Z,93.28
2023-04-20T22:00:14.391Z,92.70
2023-04-20T22:02:41.159Z,93.07
2023-04-20T22:05:09.710Z,93.57
2023-04-20T22:07:36.404Z,93.46
2023-04-20T22:10:03.165Z,94.28
2023-04-20T22:12:39.360Z,94.42
2023-04-20T22:15:09.183Z,94.03
2023-04-20T22:17:35.697Z,93.82
2023-04-20T22:20:04.021Z,93.33
2023-04-20T22:22:30.606Z,93.52
2023-04-20T22:24:57.106Z,93.04
2023-04-20T22:27:23.592Z,92.49
2023-04-20T22:29:50.060Z,92.84
2023-04-20T22:32:16.714Z,93.38
2023-04-20T22:34:43.187Z,93.36
2023-04-20T22:37:09.657Z,93.04
2023-04-20T22:39:36.151Z,92.85
2023-04-20T22:42:02.846Z,93.06
2023-04-20T22:44:29.311Z,93.37
2023-04-20T22:46:55.944Z,94.08
2023-04-20T22:49:23.481Z,94.12
2023-04-20T22:51:50.004Z,94.22
2023-04-20T22:54:16.572Z,94.20
2023-04-20T22:56:43.112Z,93.95
2023-04-20T22:59:09.577Z,93.76
2023-04-20T23:01:36.187Z,93.52
2023-04-20T23:04:03.039Z,93.24
2023-04-20T23:06:31.472Z,93.40
2023-04-20T23:09:00.287Z,93.03
2023-04-20T23:11:29.086Z,93.10
2023-04-20T23:13:55.843Z,93.02
2023-04-20T23:16:23.195Z,92.87
2023-04-20T23:18:49.728Z,93.94
2023-04-20T23:21:16.580Z,94.17
2023-04-20T23:23:43.172Z,94.29
2023-04-20T23:26:09.629Z,93.73
2023-04-20T23:28:36.345Z,94.03
2023-04-20T23:31:02.851Z,93.80
2023-04-20T23:33:29.336Z,94.17
2023-04-20T23:35:58.336Z,93.63
2023-04-20T23:38:24.874Z,93.39
2023-04-20T23:40:51.441Z,93.98
2023-04-20T23:43:17.974Z,93.67
2023-04-20T23:45:44.625Z,93.72
2023-04-20T23:48:11.157Z,93.81
2023-04-20T23:50:37.663Z,93.55
2023-04-20T23:53:05.620Z,94.17
2023-04-20T23:55:32.609Z,93.91
2023-04-20T23:57:59.068Z,94.21
